createdAt,value
2023-03-20T00:01:17.775Z,14.07
2023-03-20T00:03:46.975Z,13.73
2023-03-20T00:06:18.523Z,18.30
2023-03-20T00:08:47.227Z,19.87
2023-03-20T00:11:24.702Z,19.17
2023-03-20T00:13:54.216Z,18.43
2023-03-20T00:16:22.766Z,18.70
2023-03-20T00:18:51.320Z,15.80
2023-03-20T00:21:21.317Z,19.77
2023-03-20T00:23:49.744Z,16.93
2023-03-20T00:26:19.788Z,17.70
2023-03-20T00:28:48.194Z,18.83
2023-03-20T00:31:26.873Z,22.27
2023-03-20T00:33:56.148Z,17.90
2023-03-20T00:36:26.170Z,18.60
2023-03-20T00:38:54.797Z,17.53
2023-03-20T00:41:24.417Z,19.83
2023-03-20T00:43:53.362Z,18.27
2023-03-20T00:46:21.991Z,19.40
2023-03-20T00:48:50.851Z,21.93
2023-03-20T00:51:19.540Z,20.63
2023-03-20T00:53:49.353Z,16.67
2023-03-20T00:56:27.285Z,15.70
2023-03-20T00:58:55.697Z,13.00
2023-03-20T01:01:24.139Z,13.73
2023-03-20T01:03:52.731Z,17.33
2023-03-20T01:06:21.304Z,13.97
2023-03-20T01:08:51.146Z,15.07
2023-03-20T01:11:21.284Z,17.37
2023-03-20T01:13:49.737Z,16.20
2023-03-20T01:16:20.433Z,20.60
2023-03-20T01:18:48.982Z,16.87
2023-03-20T01:21:17.446Z,17.60
2023-03-20T01:23:46.073Z,16.60
2023-03-20T01:26:21.342Z,13.23
2023-03-20T01:28:49.915Z,14.40
2023-03-20T01:31:18.415Z,15.10
2023-03-20T01:33:46.858Z,20.50
2023-03-20T01:36:15.963Z,15.73
2023-03-20T01:38:44.536Z,16.77
2023-03-20T01:41:14.358Z,15.87
2023-03-20T01:43:44.231Z,16.43
2023-03-20T01:46:19.585Z,17.37
2023-03-20T01:49:01.545Z,17.67
2023-03-20T01:51:31.023Z,17.53
2023-03-20T01:54:00.630Z,16.20
2023-03-20T01:56:29.213Z,18.50
2023-03-20T01:59:02.418Z,19.37
2023-03-20T02:01:30.891Z,20.87
2023-03-20T02:03:59.298Z,20.33
2023-03-20T02:06:27.764Z,22.73
2023-03-20T02:08:56.245Z,18.53
2023-03-20T02:11:25.546Z,21.80
2023-03-20T02:13:54.006Z,19.50
2023-03-20T02:16:24.024Z,19.00
2023-03-20T02:18:53.156Z,17.83
2023-03-20T02:21:31.053Z,17.23
2023-03-20T02:24:13.511Z,18.83
2023-03-20T02:26:44.831Z,15.83
2023-03-20T02:29:43.581Z,17.03
2023-03-20T02:32:28.209Z,17.80
2023-03-20T02:35:07.342Z,19.80
2023-03-20T02:37:41.906Z,21.47
2023-03-20T02:40:12.906Z,28.90
2023-03-20T02:42:41.973Z,22.10
2023-03-20T02:45:14.075Z,22.27
2023-03-20T02:47:43.861Z,21.33
2023-03-20T02:50:14.913Z,20.33
2023-03-20T02:52:45.847Z,19.47
2023-03-20T02:55:17.248Z,21.50
2023-03-20T02:57:47.845Z,22.67
2023-03-20T03:00:17.465Z,17.53
2023-03-20T03:02:47.072Z,19.37
2023-03-20T03:05:16.342Z,20.30
2023-03-20T03:07:47.067Z,22.63
2023-03-20T03:10:17.399Z,19.17
2023-03-20T03:12:46.691Z,22.63
2023-03-20T03:15:16.260Z,20.30
2023-03-20T03:17:44.952Z,24.40
2023-03-20T03:20:16.950Z,21.57
2023-03-20T03:22:46.817Z,22.13
2023-03-20T03:25:15.485Z,25.00
2023-03-20T03:27:44.441Z,20.50
2023-03-20T03:30:13.938Z,24.47
2023-03-20T03:32:45.191Z,19.87
2023-03-20T03:35:16.082Z,20.40
2023-03-20T03:37:46.044Z,19.97
2023-03-20T03:40:20.906Z,21.67
2023-03-20T03:42:52.065Z,22.43
2023-03-20T03:45:21.146Z,22.67
2023-03-20T03:47:50.363Z,23.93
2023-03-20T03:50:19.692Z,20.97
2023-03-20T03:52:48.151Z,22.73
2023-03-20T03:55:17.439Z,22.80
2023-03-20T03:57:47.770Z,26.00
2023-03-20T04:00:17.252Z,21.73
2023-03-20T04:02:45.959Z,18.23
2023-03-20T04:05:14.566Z,20.33
2023-03-20T04:07:43.122Z,24.47
2023-03-20T04:10:12.291Z,24.50
2023-03-20T04:12:41.276Z,22.87
2023-03-20T04:15:11.586Z,19.10
2023-03-20T04:17:40.145Z,19.70
2023-03-20T04:20:09.348Z,24.60
2023-03-20T04:22:37.741Z,22.50
2023-03-20T04:25:06.852Z,22.47
2023-03-20T04:27:35.371Z,19.60
2023-03-20T04:30:03.831Z,23.00
2023-03-20T04:32:33.738Z,20.60
2023-03-20T04:35:02.515Z,21.67
2023-03-20T04:37:31.209Z,21.40
2023-03-20T04:39:59.629Z,21.70
2023-03-20T04:42:28.021Z,21.73
2023-03-20T04:44:56.637Z,18.87
2023-03-20T04:47:25.063Z,20.83
2023-03-20T04:49:54.933Z,19.07
2023-03-20T04:52:23.366Z,23.07
2023-03-20T04:54:51.777Z,22.40
2023-03-20T04:57:20.268Z,27.80
2023-03-20T04:59:48.754Z,18.53
2023-03-20T05:02:17.971Z,22.03
2023-03-20T05:04:46.570Z,20.23
2023-03-20T05:07:16.358Z,23.17
2023-03-20T05:09:44.948Z,23.13
2023-03-20T05:12:13.443Z,24.00
2023-03-20T05:14:41.891Z,19.90
2023-03-20T05:17:10.447Z,22.20
2023-03-20T05:19:38.945Z,23.13
2023-03-20T05:22:07.481Z,18.93
2023-03-20T05:24:37.337Z,24.43
2023-03-20T05:27:05.891Z,24.87
2023-03-20T05:29:34.318Z,21.23
2023-03-20T05:32:02.780Z,25.93
2023-03-20T05:34:31.204Z,23.73
2023-03-20T05:36:59.602Z,25.43
2023-03-20T05:39:28.013Z,20.83
2023-03-20T05:41:57.813Z,19.77
2023-03-20T05:44:26.453Z,21.43
2023-03-20T05:46:54.821Z,18.57
2023-03-20T05:49:23.291Z,19.27
2023-03-20T05:51:54.476Z,22.00
2023-03-20T05:54:22.956Z,23.77
2023-03-20T05:56:51.430Z,21.90
2023-03-20T05:59:21.738Z,19.53
2023-03-20T06:01:50.329Z,27.73
2023-03-20T06:04:18.700Z,20.07
2023-03-20T06:06:47.109Z,21.23
2023-03-20T06:09:15.846Z,18.23
2023-03-20T06:11:44.391Z,21.47
2023-03-20T06:14:12.983Z,18.27
2023-03-20T06:16:42.817Z,22.73
2023-03-20T06:19:11.752Z,21.93
2023-03-20T06:21:40.185Z,20.30
2023-03-20T06:24:09.021Z,16.90
2023-03-20T06:26:37.562Z,15.30
2023-03-20T06:29:06.405Z,20.53
2023-03-20T06:31:34.874Z,16.90
2023-03-20T06:34:04.810Z,17.77
2023-03-20T06:36:33.367Z,22.00
2023-03-20T06:39:01.810Z,16.10
2023-03-20T06:41:34.661Z,15.93
2023-03-20T06:44:03.934Z,18.97
2023-03-20T06:46:32.621Z,20.00
2023-03-20T06:49:01.476Z,18.70
2023-03-20T06:51:31.680Z,16.90
2023-03-20T06:54:00.129Z,13.90
2023-03-20T06:56:28.510Z,13.07
2023-03-20T06:58:56.930Z,17.07
2023-03-20T07:01:25.408Z,15.53
2023-03-20T07:03:53.947Z,17.90
2023-03-20T07:06:23.015Z,21.97
2023-03-20T07:08:53.187Z,21.87
2023-03-20T07:11:22.435Z,16.57
2023-03-20T07:13:51.021Z,14.47
2023-03-20T07:16:19.877Z,17.93
2023-03-20T07:18:48.380Z,19.57
2023-03-20T07:21:18.956Z,19.20
2023-03-20T07:23:47.896Z,18.97
2023-03-20T07:26:18.297Z,16.73
2023-03-20T07:28:46.850Z,18.60
2023-03-20T07:31:20.572Z,14.20
2023-03-20T07:33:49.089Z,19.77
2023-03-20T07:36:17.678Z,17.03
2023-03-20T07:38:46.326Z,17.47
2023-03-20T07:41:14.987Z,15.40
2023-03-20T07:43:44.957Z,15.67
2023-03-20T07:46:13.565Z,17.50
2023-03-20T07:48:42.190Z,14.23
2023-03-20T07:51:10.721Z,22.00
2023-03-20T07:53:39.345Z,16.27
2023-03-20T07:56:08.156Z,19.63
2023-03-20T07:58:36.831Z,17.83
2023-03-20T08:01:07.138Z,20.03
2023-03-20T08:03:39.090Z,19.70
2023-03-20T08:06:09.726Z,18.97
2023-03-20T08:08:38.552Z,18.30
2023-03-20T08:11:07.080Z,17.50
2023-03-20T08:13:35.592Z,17.77
2023-03-20T08:16:04.103Z,18.50
2023-03-20T08:18:34.001Z,14.47
2023-03-20T08:21:02.527Z,13.70
2023-03-20T08:23:32.724Z,16.23
2023-03-20T08:26:01.270Z,13.57
2023-03-20T08:28:46.215Z,13.60
2023-03-20T08:31:18.849Z,11.53
2023-03-20T08:33:48.773Z,17.80
2023-03-20T08:36:19.783Z,10.90
2023-03-20T08:38:48.365Z,15.07
2023-03-20T08:41:16.903Z,17.70
2023-03-20T08:43:51.152Z,17.37
2023-03-20T08:46:19.661Z,16.57
2023-03-20T08:48:49.509Z,21.70
2023-03-20T08:51:17.848Z,15.90
2023-03-20T08:53:46.613Z,14.80
2023-03-20T08:56:15.005Z,17.73
2023-03-20T08:58:43.521Z,17.40
2023-03-20T09:01:12.293Z,17.97
2023-03-20T09:03:40.796Z,18.27
2023-03-20T09:06:11.186Z,15.90
2023-03-20T09:08:40.042Z,17.03
2023-03-20T09:11:08.962Z,20.90
2023-03-20T09:13:37.792Z,18.23
2023-03-20T09:16:06.632Z,23.00
2023-03-20T09:18:35.519Z,21.57
2023-03-20T09:21:07.017Z,19.47
2023-03-20T09:23:36.913Z,24.20
2023-03-20T09:26:05.890Z,22.90
2023-03-20T09:28:34.454Z,18.67
2023-03-20T09:31:02.992Z,20.67
2023-03-20T09:33:31.476Z,22.83
2023-03-20T09:36:00.126Z,19.97
2023-03-20T09:38:28.805Z,23.40
2023-03-20T09:40:59.588Z,30.37
2023-03-20T09:43:30.929Z,26.57
2023-03-20T09:46:01.859Z,25.40
2023-03-20T09:48:31.590Z,26.93
2023-03-20T09:51:00.451Z,20.83
2023-03-20T09:53:30.073Z,23.87
2023-03-20T09:55:59.916Z,30.20
2023-03-20T09:58:29.041Z,23.63
2023-03-20T10:00:57.525Z,24.80
2023-03-20T10:03:27.118Z,27.47
2023-03-20T10:05:56.947Z,32.43
2023-03-20T10:08:26.940Z,28.27
2023-03-20T10:10:57.958Z,25.80
2023-03-20T10:13:47.281Z,18.70
2023-03-20T10:16:19.538Z,21.37
2023-03-20T10:18:49.022Z,26.97
2023-03-20T10:21:18.784Z,29.70
2023-03-20T10:23:50.113Z,24.57
2023-03-20T10:26:19.967Z,24.00
2023-03-20T10:28:49.056Z,24.87
2023-03-20T10:31:25.339Z,28.50
2023-03-20T10:33:57.173Z,24.63
2023-03-20T10:36:33.914Z,28.47
2023-03-20T10:39:02.991Z,27.63
2023-03-20T10:41:32.536Z,23.23
2023-03-20T10:44:01.179Z,27.67
2023-03-20T10:46:31.884Z,29.27
2023-03-20T10:49:00.931Z,29.07
2023-03-20T10:51:39.074Z,23.97
2023-03-20T10:54:07.759Z,24.93
2023-03-20T10:56:37.874Z,25.37
2023-03-20T10:59:06.888Z,25.57
2023-03-20T11:01:36.959Z,22.90
2023-03-20T11:04:05.505Z,26.90
2023-03-20T11:06:34.876Z,23.67
2023-03-20T11:09:10.798Z,29.93
2023-03-20T11:11:40.030Z,27.73
2023-03-20T11:14:11.855Z,25.97
2023-03-20T11:16:44.997Z,24.73
2023-03-20T11:19:14.528Z,25.40
2023-03-20T11:21:47.088Z,27.67
2023-03-20T11:24:22.164Z,30.33
2023-03-20T11:26:50.689Z,27.37
2023-03-20T11:29:21.100Z,21.77
2023-03-20T11:31:54.275Z,30.63
2023-03-20T11:34:27.893Z,29.67
2023-03-20T11:37:09.325Z,24.33
2023-03-20T11:39:40.204Z,24.33
2023-03-20T11:42:21.553Z,24.70
2023-03-20T11:44:49.998Z,22.63
2023-03-20T11:47:21.618Z,30.50
2023-03-20T11:49:51.832Z,30.53
2023-03-20T11:52:22.239Z,22.40
2023-03-20T11:54:52.008Z,24.53
2023-03-20T11:57:34.099Z,23.50
2023-03-20T12:00:03.877Z,20.37
2023-03-20T12:02:33.761Z,22.70
2023-03-20T12:05:02.274Z,23.73
2023-03-20T12:07:31.831Z,20.80
2023-03-20T12:10:00.810Z,24.70
2023-03-20T12:12:33.342Z,20.07
2023-03-20T12:15:04.030Z,20.57
2023-03-20T12:17:35.998Z,20.83
2023-03-20T12:20:05.916Z,24.83
2023-03-20T12:22:35.847Z,25.23
2023-03-20T12:25:06.555Z,19.13
2023-03-20T12:27:35.305Z,25.80
2023-03-20T12:30:06.991Z,23.37
2023-03-20T12:32:38.593Z,21.37
2023-03-20T12:35:07.550Z,17.87
2023-03-20T12:37:35.902Z,21.03
2023-03-20T12:40:05.127Z,19.10
2023-03-20T12:42:37.013Z,17.77
2023-03-20T12:45:07.099Z,21.43
2023-03-20T12:47:43.008Z,17.90
2023-03-20T12:50:12.770Z,16.50
2023-03-20T12:52:45.901Z,17.43
2023-03-20T12:55:17.490Z,18.83
2023-03-20T12:57:48.768Z,15.73
2023-03-20T13:00:19.073Z,18.73
2023-03-20T13:02:52.476Z,12.90
2023-03-20T13:05:33.317Z,18.03
2023-03-20T13:08:08.199Z,16.53
2023-03-20T13:10:37.313Z,18.70
2023-03-20T13:13:08.853Z,17.90
2023-03-20T13:15:41.627Z,15.00
2023-03-20T13:18:12.253Z,12.87
2023-03-20T13:20:41.174Z,13.17
2023-03-20T13:23:13.030Z,12.23
2023-03-20T13:25:47.946Z,14.43
2023-03-20T13:28:17.447Z,15.73
2023-03-20T13:30:47.255Z,15.63
2023-03-20T13:33:22.131Z,16.00
2023-03-20T13:35:51.911Z,14.07
2023-03-20T13:38:21.864Z,14.43
2023-03-20T13:40:50.750Z,13.67
2023-03-20T13:43:22.736Z,16.00
2023-03-20T13:45:52.134Z,17.57
2023-03-20T13:48:25.967Z,19.27
2023-03-20T13:50:55.660Z,20.13
2023-03-20T13:53:27.345Z,18.63
2023-03-20T13:55:57.075Z,24.80
2023-03-20T13:58:29.572Z,31.93
2023-03-20T14:00:59.261Z,27.23
2023-03-20T14:03:29.427Z,26.27
2023-03-20T14:06:00.793Z,27.87
2023-03-20T14:08:34.061Z,22.00
2023-03-20T14:11:10.109Z,27.57
2023-03-20T14:13:38.567Z,26.67
2023-03-20T14:16:13.238Z,26.80
2023-03-20T14:18:43.460Z,24.57
2023-03-20T14:21:13.179Z,24.83
2023-03-20T14:23:43.257Z,28.60
2023-03-20T14:26:12.292Z,28.57
2023-03-20T14:28:45.771Z,22.77
2023-03-20T14:31:15.540Z,33.37
2023-03-20T14:33:45.696Z,28.30
2023-03-20T14:36:18.712Z,25.67
2023-03-20T14:38:54.167Z,27.27
2023-03-20T14:41:24.571Z,25.57
2023-03-20T14:44:02.857Z,23.03
2023-03-20T14:46:33.599Z,26.73
2023-03-20T14:49:04.506Z,30.77
2023-03-20T14:51:34.801Z,25.87
2023-03-20T14:54:18.141Z,22.17
2023-03-20T14:56:46.704Z,19.10
2023-03-20T14:59:15.572Z,15.77
2023-03-20T15:01:48.145Z,23.77
2023-03-20T15:04:31.387Z,12.10
2023-03-20T15:07:02.226Z,16.27
2023-03-20T15:09:32.248Z,19.00
2023-03-20T15:12:04.474Z,18.03
2023-03-20T15:14:35.020Z,20.47
2023-03-20T15:17:04.552Z,14.73
2023-03-20T15:19:33.740Z,22.70
2023-03-20T15:22:03.693Z,24.80
2023-03-20T15:24:32.406Z,16.60
2023-03-20T15:27:02.225Z,20.50
2023-03-20T15:29:30.832Z,21.17
2023-03-20T15:32:13.574Z,14.80
2023-03-20T15:34:58.422Z,19.27
2023-03-20T15:37:28.610Z,16.30
2023-03-20T15:39:59.292Z,17.00
2023-03-20T15:42:27.946Z,16.40
2023-03-20T15:44:56.842Z,16.33
2023-03-20T15:47:25.981Z,12.03
2023-03-20T15:49:54.822Z,16.30
2023-03-20T15:52:31.286Z,16.67
2023-03-20T15:55:00.171Z,20.70
2023-03-20T15:57:29.159Z,17.67
2023-03-20T15:59:57.748Z,20.13
2023-03-20T16:02:26.159Z,21.23
2023-03-20T16:04:55.037Z,28.10
2023-03-20T16:07:23.844Z,17.70
2023-03-20T16:09:53.719Z,12.97
2023-03-20T16:12:22.306Z,20.73
2023-03-20T16:14:50.807Z,23.23
2023-03-20T16:17:19.490Z,18.53
2023-03-20T16:19:47.991Z,19.60
2023-03-20T16:22:24.056Z,13.97
2023-03-20T16:24:55.637Z,17.80
2023-03-20T16:27:28.750Z,18.60
2023-03-20T16:29:57.987Z,11.70
2023-03-20T16:32:31.025Z,17.57
2023-03-20T16:35:01.562Z,11.50
2023-03-20T16:37:30.856Z,16.50
2023-03-20T16:40:18.051Z,16.80
2023-03-20T16:42:46.871Z,17.07
2023-03-20T16:45:18.574Z,17.10
2023-03-20T16:47:47.413Z,12.27
2023-03-20T16:50:18.864Z,15.27
2023-03-20T16:52:47.965Z,20.40
2023-03-20T16:55:18.728Z,14.20
2023-03-20T16:57:48.155Z,14.30
2023-03-20T17:00:24.855Z,8.57
2023-03-20T17:02:53.823Z,13.03
2023-03-20T17:05:23.359Z,21.97
2023-03-20T17:07:52.332Z,13.90
2023-03-20T17:10:24.487Z,21.23
2023-03-20T17:12:54.107Z,13.53
2023-03-20T17:15:23.176Z,13.17
2023-03-20T17:17:53.774Z,16.23
2023-03-20T17:20:23.508Z,13.47
2023-03-20T17:22:55.942Z,8.93
2023-03-20T17:25:31.527Z,11.83
2023-03-20T17:28:00.133Z,12.93
2023-03-20T17:30:28.662Z,11.97
2023-03-20T17:32:58.670Z,10.00
2023-03-20T17:35:27.026Z,10.70
2023-03-20T17:37:55.482Z,8.17
2023-03-20T17:40:25.366Z,8.00
2023-03-20T17:42:55.094Z,8.93
2023-03-20T17:45:24.094Z,9.97
2023-03-20T17:47:52.982Z,6.80
2023-03-20T17:50:24.350Z,8.60
2023-03-20T17:52:53.800Z,7.40
2023-03-20T17:55:22.377Z,8.67
2023-03-20T17:57:50.936Z,6.13
2023-03-20T18:00:24.945Z,9.13
2023-03-20T18:02:53.468Z,10.73
2023-03-20T18:05:22.046Z,6.83
2023-03-20T18:07:50.739Z,7.53
2023-03-20T18:10:22.203Z,8.63
2023-03-20T18:12:51.180Z,6.60
2023-03-20T18:15:20.036Z,6.97
2023-03-20T18:17:52.181Z,7.67
2023-03-20T18:20:24.534Z,4.87
2023-03-20T18:22:54.617Z,6.50
2023-03-20T18:25:25.894Z,7.23
2023-03-20T18:27:55.082Z,4.93
2023-03-20T18:30:24.161Z,6.67
2023-03-20T18:32:54.322Z,7.17
2023-03-20T18:35:25.783Z,5.90
2023-03-20T18:37:54.458Z,8.10
2023-03-20T18:40:26.146Z,7.40
2023-03-20T18:42:54.929Z,7.73
2023-03-20T18:45:23.421Z,6.77
2023-03-20T18:47:54.803Z,9.97
2023-03-20T18:50:25.460Z,8.93
2023-03-20T18:52:57.226Z,6.50
2023-03-20T18:55:26.393Z,9.30
2023-03-20T18:57:54.920Z,7.47
2023-03-20T19:00:27.560Z,8.83
2023-03-20T19:02:57.854Z,5.97
2023-03-20T19:05:26.964Z,6.17
2023-03-20T19:07:56.516Z,5.83
2023-03-20T19:10:26.736Z,7.20
2023-03-20T19:12:55.251Z,8.13
2023-03-20T19:15:23.865Z,5.70
2023-03-20T19:17:52.364Z,4.40
2023-03-20T19:20:28.847Z,7.47
2023-03-20T19:22:57.926Z,4.40
2023-03-20T19:25:26.530Z,4.50
2023-03-20T19:27:55.408Z,9.03
2023-03-20T19:30:28.195Z,4.23
2023-03-20T19:32:57.642Z,5.10
2023-03-20T19:36:01.046Z,4.60
2023-03-20T19:38:16.572Z,6.50
2023-03-20T19:40:46.085Z,5.83
2023-03-20T19:43:15.548Z,6.10
2023-03-20T19:45:44.426Z,6.63
2023-03-20T19:48:15.404Z,7.87
2023-03-20T19:50:46.687Z,6.13
2023-03-20T19:53:21.681Z,8.70
2023-03-20T19:55:56.314Z,11.30
2023-03-20T19:58:25.244Z,9.50
2023-03-20T20:00:57.816Z,13.47
2023-03-20T20:03:27.516Z,12.27
2023-03-20T20:05:56.291Z,11.67
2023-03-20T20:08:42.596Z,10.20
2023-03-20T20:11:15.073Z,12.33
2023-03-20T20:14:04.180Z,12.27
2023-03-20T20:16:32.498Z,13.73
2023-03-20T20:19:01.278Z,19.77
2023-03-20T20:24:20.932Z,14.40
2023-03-20T20:27:14.710Z,17.07
2023-03-20T20:29:44.331Z,16.93
2023-03-20T20:32:13.193Z,15.10
2023-03-20T20:38:27.171Z,15.30
2023-03-20T20:40:31.649Z,14.33
2023-03-20T20:43:02.525Z,15.63
2023-03-20T20:45:32.155Z,17.60
2023-03-20T20:48:08.380Z,15.53
2023-03-20T20:50:39.118Z,18.87
2023-03-20T20:53:11.329Z,19.83
2023-03-20T20:55:42.000Z,22.00
2023-03-20T20:58:11.643Z,25.87
2023-03-20T21:00:51.973Z,23.77
2023-03-20T21:03:29.809Z,22.10
2023-03-20T21:05:58.487Z,24.43
2023-03-20T21:08:36.634Z,23.43
2023-03-20T21:11:09.888Z,24.10
2023-03-20T21:13:39.064Z,24.17
2023-03-20T21:16:08.268Z,28.03
2023-03-20T21:18:36.860Z,23.93
2023-03-20T21:21:08.926Z,22.90
2023-03-20T21:23:37.766Z,22.60
2023-03-20T21:26:07.423Z,21.23
2023-03-20T21:28:38.367Z,22.10
2023-03-20T21:31:23.821Z,19.90
2023-03-20T21:33:55.103Z,19.43
2023-03-20T21:36:27.833Z,19.33
2023-03-20T21:39:13.373Z,23.37
2023-03-20T21:41:42.126Z,23.17
2023-03-20T21:44:17.117Z,21.90
2023-03-20T21:47:20.693Z,26.07
2023-03-20T21:52:59.892Z,23.43
2023-03-20T21:58:44.416Z,23.43
2023-03-20T22:12:53.541Z,24.83
2023-03-20T22:15:38.867Z,21.50
2023-03-20T22:18:28.825Z,27.23
2023-03-20T22:29:48.205Z,22.93
2023-03-20T22:32:40.571Z,26.00
2023-03-20T22:35:33.650Z,24.77
2023-03-20T22:46:16.807Z,22.67
2023-03-20T22:48:48.902Z,28.30
2023-03-20T22:51:22.678Z,27.03
2023-03-20T22:53:57.446Z,25.53
2023-03-20T22:56:25.951Z,25.90
2023-03-20T22:58:54.837Z,28.33
2023-03-20T23:01:24.156Z,23.37
2023-03-20T23:03:53.712Z,27.00
2023-03-20T23:06:23.935Z,26.70
2023-03-20T23:08:56.549Z,26.10
2023-03-20T23:11:25.877Z,27.07
2023-03-20T23:13:56.509Z,29.27
2023-03-20T23:16:26.782Z,23.17
2023-03-20T23:18:55.548Z,25.00
2023-03-20T23:21:26.821Z,24.67
2023-03-20T23:23:55.587Z,23.87
2023-03-20T23:26:24.077Z,22.57
2023-03-20T23:28:54.359Z,24.33
2023-03-20T23:31:24.057Z,21.73
2023-03-20T23:33:54.213Z,25.27
2023-03-20T23:36:35.268Z,21.57
2023-03-20T23:39:08.622Z,23.97
2023-03-20T23:44:26.010Z,20.63
2023-03-20T23:46:55.525Z,19.77
2023-03-20T23:49:24.048Z,23.70
2023-03-20T23:51:52.375Z,22.47
2023-03-20T23:54:22.945Z,22.93
2023-03-20T23:56:51.360Z,22.37
2023-03-20T23:59:22.372Z,27.90
